Terminal Aerodrome Forecast
Issued by NWS

Home | Current Version | Previous Version | Text Only | Print | Product List | Glossary On
Versions: 1 2 3 4 5 6 7 8 9 10 11 12 13 14 15 16 17 18
250
FTUS43 KILX 270523
TAFCMI
TAF
KCMI 270523Z 2706/2806 10005KT 6SM BR SCT035 BKN120
     FM271000 11005KT 4SM -SHRA BR VCTS BKN035CB
     FM271400 16007KT 4SM -SHRA BR VCTS SCT007 OVC015CB
     FM271700 18009KT P6SM BKN030
     FM272100 17008KT P6SM SCT040 BKN250=

USA.gov is the U.S. government's official web portal to all federal, state and local government web resources and services.